sensor_id;sensor_type;location;lat;lon;timestamp;P1;durP1;ratioP1;P2;durP2;ratioP2
66585;SDS011;53444;45.822;16.092;2023-04-06T00:00:13;7.55;;;2.47;;
66585;SDS011;53444;45.822;16.092;2023-04-06T00:02:40;5.13;;;2.50;;
66585;SDS011;53444;45.822;16.092;2023-04-06T00:05:07;4.63;;;2.20;;
66585;SDS011;53444;45.822;16.092;2023-04-06T00:07:34;4.78;;;2.47;;
66585;SDS011;53444;45.822;16.092;2023-04-06T00:10:01;5.43;;;2.60;;
66585;SDS011;53444;45.822;16.092;2023-04-06T00:15:40;4.47;;;2.10;;
66585;SDS011;53444;45.822;16.092;2023-04-06T00:18:06;5.10;;;2.45;;
66585;SDS011;53444;45.822;16.092;2023-04-06T00:20:33;5.47;;;1.85;;
66585;SDS011;53444;45.822;16.092;2023-04-06T00:23:00;4.32;;;2.22;;
66585;SDS011;53444;45.822;16.092;2023-04-06T00:25:27;4.43;;;2.00;;
66585;SDS011;53444;45.822;16.092;2023-04-06T00:27:53;3.37;;;1.90;;
66585;SDS011;53444;45.822;16.092;2023-04-06T00:30:20;5.53;;;2.30;;
66585;SDS011;53444;45.822;16.092;2023-04-06T00:32:48;4.15;;;1.85;;
66585;SDS011;53444;45.822;16.092;2023-04-06T00:35:15;4.50;;;2.15;;
66585;SDS011;53444;45.822;16.092;2023-04-06T00:37:42;3.97;;;2.20;;
66585;SDS011;53444;45.822;16.092;2023-04-06T00:40:09;5.30;;;2.00;;
66585;SDS011;53444;45.822;16.092;2023-04-06T00:42:36;6.38;;;2.22;;
66585;SDS011;53444;45.822;16.092;2023-04-06T00:45:03;4.97;;;2.20;;
66585;SDS011;53444;45.822;16.092;2023-04-06T00:47:30;3.25;;;1.85;;
66585;SDS011;53444;45.822;16.092;2023-04-06T00:49:58;4.55;;;2.10;;
66585;SDS011;53444;45.822;16.092;2023-04-06T00:52:25;4.73;;;2.27;;
66585;SDS011;53444;45.822;16.092;2023-04-06T00:54:52;5.13;;;1.95;;
66585;SDS011;53444;45.822;16.092;2023-04-06T00:57:19;3.90;;;2.00;;
66585;SDS011;53444;45.822;16.092;2023-04-06T00:59:46;4.53;;;2.55;;
66585;SDS011;53444;45.822;16.092;2023-04-06T01:02:13;5.45;;;2.65;;
66585;SDS011;53444;45.822;16.092;2023-04-06T01:04:40;5.13;;;2.17;;
66585;SDS011;53444;45.822;16.092;2023-04-06T01:07:08;5.32;;;2.38;;
66585;SDS011;53444;45.822;16.092;2023-04-06T01:09:35;3.72;;;2.10;;
66585;SDS011;53444;45.822;16.092;2023-04-06T01:12:01;6.07;;;2.30;;
66585;SDS011;53444;45.822;16.092;2023-04-06T01:14:28;8.25;;;2.60;;
66585;SDS011;53444;45.822;16.092;2023-04-06T01:16:57;8.33;;;2.73;;
66585;SDS011;53444;45.822;16.092;2023-04-06T01:19:24;4.55;;;2.40;;
66585;SDS011;53444;45.822;16.092;2023-04-06T01:21:50;3.90;;;2.00;;
66585;SDS011;53444;45.822;16.092;2023-04-06T01:24:19;5.57;;;2.65;;
66585;SDS011;53444;45.822;16.092;2023-04-06T01:26:46;3.60;;;2.28;;
66585;SDS011;53444;45.822;16.092;2023-04-06T01:29:13;4.70;;;2.17;;
66585;SDS011;53444;45.822;16.092;2023-04-06T01:31:39;7.03;;;2.20;;
66585;SDS011;53444;45.822;16.092;2023-04-06T01:34:06;3.92;;;2.13;;
66585;SDS011;53444;45.822;16.092;2023-04-06T01:36:33;5.18;;;2.40;;
66585;SDS011;53444;45.822;16.092;2023-04-06T01:39:00;5.05;;;2.38;;
66585;SDS011;53444;45.822;16.092;2023-04-06T01:41:28;6.20;;;2.50;;
66585;SDS011;53444;45.822;16.092;2023-04-06T01:43:55;3.97;;;2.30;;
66585;SDS011;53444;45.822;16.092;2023-04-06T01:46:21;4.47;;;2.38;;
66585;SDS011;53444;45.822;16.092;2023-04-06T01:48:48;5.07;;;2.30;;
66585;SDS011;53444;45.822;16.092;2023-04-06T01:51:15;7.25;;;2.60;;
66585;SDS011;53444;45.822;16.092;2023-04-06T01:53:42;5.63;;;2.40;;
66585;SDS011;53444;45.822;16.092;2023-04-06T01:56:08;5.20;;;2.60;;
66585;SDS011;53444;45.822;16.092;2023-04-06T01:58:36;6.38;;;2.85;;
66585;SDS011;53444;45.822;16.092;2023-04-06T02:01:03;6.75;;;3.42;;
66585;SDS011;53444;45.822;16.092;2023-04-06T02:03:30;5.85;;;3.17;;
66585;SDS011;53444;45.822;16.092;2023-04-06T02:05:57;5.17;;;2.40;;
66585;SDS011;53444;45.822;16.092;2023-04-06T02:08:23;5.07;;;2.88;;
66585;SDS011;53444;45.822;16.092;2023-04-06T02:10:50;7.47;;;2.88;;
66585;SDS011;53444;45.822;16.092;2023-04-06T02:13:17;5.47;;;2.58;;
66585;SDS011;53444;45.822;16.092;2023-04-06T02:15:45;4.93;;;2.65;;
66585;SDS011;53444;45.822;16.092;2023-04-06T02:18:11;6.10;;;2.97;;
66585;SDS011;53444;45.822;16.092;2023-04-06T02:20:38;4.38;;;2.42;;
66585;SDS011;53444;45.822;16.092;2023-04-06T02:23:05;8.70;;;2.58;;
66585;SDS011;53444;45.822;16.092;2023-04-06T02:25:32;4.90;;;2.70;;
66585;SDS011;53444;45.822;16.092;2023-04-06T02:27:58;7.55;;;3.17;;
66585;SDS011;53444;45.822;16.092;2023-04-06T02:30:26;7.03;;;3.20;;
66585;SDS011;53444;45.822;16.092;2023-04-06T02:32:55;8.40;;;3.55;;
66585;SDS011;53444;45.822;16.092;2023-04-06T02:35:22;6.97;;;3.35;;
66585;SDS011;53444;45.822;16.092;2023-04-06T02:37:48;6.32;;;3.40;;
66585;SDS011;53444;45.822;16.092;2023-04-06T02:40:15;9.23;;;4.32;;
66585;SDS011;53444;45.822;16.092;2023-04-06T02:42:42;9.67;;;4.27;;
66585;SDS011;53444;45.822;16.092;2023-04-06T02:45:09;8.60;;;4.63;;
66585;SDS011;53444;45.822;16.092;2023-04-06T02:47:35;8.02;;;4.50;;
66585;SDS011;53444;45.822;16.092;2023-04-06T02:50:04;9.13;;;4.65;;
66585;SDS011;53444;45.822;16.092;2023-04-06T02:52:31;8.13;;;4.00;;
66585;SDS011;53444;45.822;16.092;2023-04-06T02:54:58;9.87;;;6.10;;
66585;SDS011;53444;45.822;16.092;2023-04-06T02:57:25;9.00;;;4.28;;
66585;SDS011;53444;45.822;16.092;2023-04-06T02:59:51;10.80;;;3.78;;
66585;SDS011;53444;45.822;16.092;2023-04-06T03:02:18;7.65;;;4.30;;
66585;SDS011;53444;45.822;16.092;2023-04-06T03:04:45;9.15;;;4.43;;
66585;SDS011;53444;45.822;16.092;2023-04-06T03:07:13;10.83;;;4.60;;
66585;SDS011;53444;45.822;16.092;2023-04-06T03:09:39;16.25;;;4.10;;
66585;SDS011;53444;45.822;16.092;2023-04-06T03:12:06;12.40;;;4.95;;
66585;SDS011;53444;45.822;16.092;2023-04-06T03:14:33;9.57;;;4.97;;
66585;SDS011;53444;45.822;16.092;2023-04-06T03:17:00;10.90;;;4.38;;
66585;SDS011;53444;45.822;16.092;2023-04-06T03:19:27;9.23;;;4.33;;
66585;SDS011;53444;45.822;16.092;2023-04-06T03:21:54;12.45;;;4.95;;
66585;SDS011;53444;45.822;16.092;2023-04-06T03:24:22;10.73;;;5.00;;
66585;SDS011;53444;45.822;16.092;2023-04-06T03:26:48;8.13;;;3.97;;
66585;SDS011;53444;45.822;16.092;2023-04-06T03:29:15;11.55;;;5.00;;
66585;SDS011;53444;45.822;16.092;2023-04-06T03:31:42;11.30;;;4.50;;
66585;SDS011;53444;45.822;16.092;2023-04-06T03:34:09;12.15;;;4.40;;
66585;SDS011;53444;45.822;16.092;2023-04-06T03:36:35;8.48;;;4.00;;
66585;SDS011;53444;45.822;16.092;2023-04-06T03:39:02;11.20;;;4.63;;
66585;SDS011;53444;45.822;16.092;2023-04-06T03:41:30;9.90;;;4.65;;
66585;SDS011;53444;45.822;16.092;2023-04-06T03:43:57;9.63;;;4.67;;
66585;SDS011;53444;45.822;16.092;2023-04-06T03:46:31;7.28;;;4.05;;
66585;SDS011;53444;45.822;16.092;2023-04-06T03:49:11;10.82;;;5.10;;
66585;SDS011;53444;45.822;16.092;2023-04-06T03:51:38;11.73;;;4.97;;
66585;SDS011;53444;45.822;16.092;2023-04-06T03:54:05;9.57;;;4.05;;
66585;SDS011;53444;45.822;16.092;2023-04-06T03:56:33;10.53;;;4.63;;
66585;SDS011;53444;45.822;16.092;2023-04-06T03:59:00;9.57;;;4.63;;
66585;SDS011;53444;45.822;16.092;2023-04-06T04:01:27;14.38;;;6.13;;
66585;SDS011;53444;45.822;16.092;2023-04-06T04:03:53;14.52;;;6.22;;
66585;SDS011;53444;45.822;16.092;2023-04-06T04:06:20;12.55;;;5.18;;
66585;SDS011;53444;45.822;16.092;2023-04-06T04:08:47;9.50;;;5.03;;
66585;SDS011;53444;45.822;16.092;2023-04-06T04:11:13;8.48;;;4.55;;
66585;SDS011;53444;45.822;16.092;2023-04-06T04:13:42;11.98;;;5.38;;
66585;SDS011;53444;45.822;16.092;2023-04-06T04:16:08;13.23;;;4.78;;
66585;SDS011;53444;45.822;16.092;2023-04-06T04:18:35;15.23;;;6.53;;
66585;SDS011;53444;45.822;16.092;2023-04-06T04:21:02;10.40;;;5.17;;
66585;SDS011;53444;45.822;16.092;2023-04-06T04:23:29;10.77;;;4.93;;
66585;SDS011;53444;45.822;16.092;2023-04-06T04:25:55;12.52;;;5.15;;
66585;SDS011;53444;45.822;16.092;2023-04-06T04:28:22;10.00;;;5.18;;
66585;SDS011;53444;45.822;16.092;2023-04-06T04:30:50;11.23;;;5.20;;
66585;SDS011;53444;45.822;16.092;2023-04-06T04:33:17;11.80;;;5.00;;
66585;SDS011;53444;45.822;16.092;2023-04-06T04:35:43;9.82;;;4.68;;
66585;SDS011;53444;45.822;16.092;2023-04-06T04:38:10;12.80;;;4.72;;
66585;SDS011;53444;45.822;16.092;2023-04-06T04:40:37;10.23;;;4.57;;
66585;SDS011;53444;45.822;16.092;2023-04-06T04:43:04;9.30;;;4.22;;
66585;SDS011;53444;45.822;16.092;2023-04-06T04:45:34;13.63;;;4.53;;
66585;SDS011;53444;45.822;16.092;2023-04-06T04:48:02;9.57;;;4.72;;
66585;SDS011;53444;45.822;16.092;2023-04-06T04:50:30;9.45;;;4.88;;
66585;SDS011;53444;45.822;16.092;2023-04-06T04:52:58;14.43;;;5.45;;
66585;SDS011;53444;45.822;16.092;2023-04-06T04:55:25;12.52;;;5.05;;
66585;SDS011;53444;45.822;16.092;2023-04-06T04:57:52;11.83;;;5.53;;
66585;SDS011;53444;45.822;16.092;2023-04-06T05:00:19;10.20;;;5.28;;
66585;SDS011;53444;45.822;16.092;2023-04-06T05:02:47;14.18;;;5.95;;
66585;SDS011;53444;45.822;16.092;2023-04-06T05:05:15;13.68;;;5.90;;
66585;SDS011;53444;45.822;16.092;2023-04-06T05:07:42;12.68;;;5.72;;
66585;SDS011;53444;45.822;16.092;2023-04-06T05:10:09;14.83;;;6.63;;
66585;SDS011;53444;45.822;16.092;2023-04-06T05:12:37;21.30;;;6.90;;
66585;SDS011;53444;45.822;16.092;2023-04-06T05:15:07;17.00;;;6.13;;
66585;SDS011;53444;45.822;16.092;2023-04-06T05:17:37;13.60;;;6.20;;
66585;SDS011;53444;45.822;16.092;2023-04-06T05:20:22;15.57;;;6.20;;
66585;SDS011;53444;45.822;16.092;2023-04-06T05:22:56;12.90;;;6.27;;
66585;SDS011;53444;45.822;16.092;2023-04-06T05:25:23;18.95;;;7.25;;
66585;SDS011;53444;45.822;16.092;2023-04-06T05:27:53;14.48;;;6.82;;
66585;SDS011;53444;45.822;16.092;2023-04-06T05:30:20;15.82;;;6.95;;
66585;SDS011;53444;45.822;16.092;2023-04-06T05:32:48;20.58;;;7.97;;
66585;SDS011;53444;45.822;16.092;2023-04-06T05:35:15;15.57;;;7.77;;
66585;SDS011;53444;45.822;16.092;2023-04-06T05:37:43;18.70;;;8.80;;
66585;SDS011;53444;45.822;16.092;2023-04-06T05:40:11;20.52;;;9.90;;
66585;SDS011;53444;45.822;16.092;2023-04-06T05:42:38;26.88;;;11.07;;
66585;SDS011;53444;45.822;16.092;2023-04-06T05:45:08;23.50;;;9.88;;
66585;SDS011;53444;45.822;16.092;2023-04-06T05:47:36;20.47;;;8.87;;
66585;SDS011;53444;45.822;16.092;2023-04-06T05:50:04;20.52;;;8.52;;
66585;SDS011;53444;45.822;16.092;2023-04-06T05:52:31;18.33;;;8.05;;
66585;SDS011;53444;45.822;16.092;2023-04-06T05:55:00;16.75;;;7.53;;
66585;SDS011;53444;45.822;16.092;2023-04-06T05:57:28;17.98;;;7.55;;
66585;SDS011;53444;45.822;16.092;2023-04-06T05:59:55;14.37;;;8.00;;
66585;SDS011;53444;45.822;16.092;2023-04-06T06:02:22;19.40;;;8.98;;
66585;SDS011;53444;45.822;16.092;2023-04-06T06:04:49;19.77;;;8.95;;
66585;SDS011;53444;45.822;16.092;2023-04-06T06:07:16;17.55;;;8.80;;
66585;SDS011;53444;45.822;16.092;2023-04-06T06:09:45;23.10;;;9.90;;
66585;SDS011;53444;45.822;16.092;2023-04-06T06:18:45;17.75;;;8.52;;
66585;SDS011;53444;45.822;16.092;2023-04-06T06:21:15;14.38;;;7.85;;
66585;SDS011;53444;45.822;16.092;2023-04-06T06:23:43;16.08;;;8.05;;
66585;SDS011;53444;45.822;16.092;2023-04-06T06:26:12;15.57;;;7.73;;
66585;SDS011;53444;45.822;16.092;2023-04-06T06:28:39;13.20;;;7.63;;
66585;SDS011;53444;45.822;16.092;2023-04-06T06:31:08;15.10;;;7.90;;
66585;SDS011;53444;45.822;16.092;2023-04-06T06:33:36;14.05;;;7.65;;
66585;SDS011;53444;45.822;16.092;2023-04-06T06:36:03;16.20;;;8.57;;
66585;SDS011;53444;45.822;16.092;2023-04-06T06:38:30;13.27;;;6.13;;
66585;SDS011;53444;45.822;16.092;2023-04-06T06:40:58;11.80;;;5.53;;
66585;SDS011;53444;45.822;16.092;2023-04-06T06:43:25;11.45;;;5.32;;
66585;SDS011;53444;45.822;16.092;2023-04-06T06:45:52;11.52;;;4.80;;
66585;SDS011;53444;45.822;16.092;2023-04-06T06:48:24;11.38;;;4.82;;
66585;SDS011;53444;45.822;16.092;2023-04-06T06:50:51;7.93;;;3.93;;
66585;SDS011;53444;45.822;16.092;2023-04-06T06:53:21;11.07;;;6.57;;
66585;SDS011;53444;45.822;16.092;2023-04-06T06:55:48;11.13;;;6.32;;
66585;SDS011;53444;45.822;16.092;2023-04-06T06:58:17;9.35;;;4.85;;
66585;SDS011;53444;45.822;16.092;2023-04-06T07:00:57;8.68;;;4.63;;
66585;SDS011;53444;45.822;16.092;2023-04-06T07:03:32;7.33;;;3.90;;
66585;SDS011;53444;45.822;16.092;2023-04-06T07:05:59;5.93;;;3.70;;
66585;SDS011;53444;45.822;16.092;2023-04-06T07:08:35;4.30;;;3.05;;
66585;SDS011;53444;45.822;16.092;2023-04-06T07:11:03;7.63;;;4.80;;
66585;SDS011;53444;45.822;16.092;2023-04-06T07:13:33;6.20;;;3.60;;
66585;SDS011;53444;45.822;16.092;2023-04-06T07:16:03;9.43;;;3.63;;
66585;SDS011;53444;45.822;16.092;2023-04-06T07:18:34;6.53;;;3.80;;
66585;SDS011;53444;45.822;16.092;2023-04-06T07:21:02;6.00;;;3.25;;
66585;SDS011;53444;45.822;16.092;2023-04-06T07:23:29;7.68;;;3.60;;
66585;SDS011;53444;45.822;16.092;2023-04-06T07:25:58;7.47;;;3.72;;
66585;SDS011;53444;45.822;16.092;2023-04-06T07:28:25;5.37;;;3.13;;
66585;SDS011;53444;45.822;16.092;2023-04-06T07:31:02;5.03;;;3.08;;
66585;SDS011;53444;45.822;16.092;2023-04-06T07:36:15;8.35;;;3.10;;
66585;SDS011;53444;45.822;16.092;2023-04-06T07:38:43;7.22;;;3.47;;
66585;SDS011;53444;45.822;16.092;2023-04-06T07:41:14;8.07;;;4.20;;
66585;SDS011;53444;45.822;16.092;2023-04-06T07:43:42;6.95;;;3.85;;
66585;SDS011;53444;45.822;16.092;2023-04-06T07:46:09;6.28;;;3.78;;
66585;SDS011;53444;45.822;16.092;2023-04-06T07:48:36;6.43;;;4.50;;
66585;SDS011;53444;45.822;16.092;2023-04-06T07:51:05;8.75;;;4.20;;
66585;SDS011;53444;45.822;16.092;2023-04-06T07:53:34;7.63;;;4.00;;
66585;SDS011;53444;45.822;16.092;2023-04-06T07:56:00;9.23;;;3.70;;
66585;SDS011;53444;45.822;16.092;2023-04-06T07:58:27;7.07;;;4.00;;
66585;SDS011;53444;45.822;16.092;2023-04-06T08:00:54;7.13;;;4.50;;
66585;SDS011;53444;45.822;16.092;2023-04-06T08:03:22;26.80;;;12.50;;
66585;SDS011;53444;45.822;16.092;2023-04-06T08:05:50;30.67;;;14.63;;
66585;SDS011;53444;45.822;16.092;2023-04-06T08:08:19;7.93;;;4.47;;
66585;SDS011;53444;45.822;16.092;2023-04-06T08:10:47;13.10;;;5.03;;
66585;SDS011;53444;45.822;16.092;2023-04-06T08:13:16;6.57;;;4.45;;
66585;SDS011;53444;45.822;16.092;2023-04-06T08:15:42;9.43;;;4.63;;
66585;SDS011;53444;45.822;16.092;2023-04-06T08:18:10;7.07;;;4.63;;
66585;SDS011;53444;45.822;16.092;2023-04-06T08:20:41;8.73;;;4.22;;
66585;SDS011;53444;45.822;16.092;2023-04-06T08:23:07;6.85;;;4.82;;
66585;SDS011;53444;45.822;16.092;2023-04-06T08:25:37;8.02;;;5.05;;
66585;SDS011;53444;45.822;16.092;2023-04-06T08:28:04;8.20;;;4.97;;
66585;SDS011;53444;45.822;16.092;2023-04-06T08:30:31;8.10;;;4.70;;
66585;SDS011;53444;45.822;16.092;2023-04-06T08:33:00;7.30;;;4.55;;
66585;SDS011;53444;45.822;16.092;2023-04-06T08:35:30;6.80;;;4.65;;
66585;SDS011;53444;45.822;16.092;2023-04-06T08:37:57;7.38;;;4.53;;
66585;SDS011;53444;45.822;16.092;2023-04-06T08:40:27;7.28;;;5.05;;
66585;SDS011;53444;45.822;16.092;2023-04-06T08:42:56;7.90;;;4.70;;
66585;SDS011;53444;45.822;16.092;2023-04-06T08:45:27;7.65;;;4.47;;
66585;SDS011;53444;45.822;16.092;2023-04-06T08:47:53;7.30;;;4.78;;
66585;SDS011;53444;45.822;16.092;2023-04-06T08:50:24;8.50;;;4.70;;
66585;SDS011;53444;45.822;16.092;2023-04-06T08:52:51;9.93;;;4.93;;
66585;SDS011;53444;45.822;16.092;2023-04-06T08:55:18;8.00;;;4.93;;
66585;SDS011;53444;45.822;16.092;2023-04-06T08:57:45;10.05;;;5.90;;
66585;SDS011;53444;45.822;16.092;2023-04-06T09:00:14;7.78;;;5.15;;
66585;SDS011;53444;45.822;16.092;2023-04-06T09:02:43;6.45;;;4.20;;
66585;SDS011;53444;45.822;16.092;2023-04-06T09:05:12;7.18;;;4.20;;
66585;SDS011;53444;45.822;16.092;2023-04-06T09:07:39;7.90;;;4.55;;
66585;SDS011;53444;45.822;16.092;2023-04-06T09:10:07;8.77;;;4.82;;
66585;SDS011;53444;45.822;16.092;2023-04-06T09:12:34;7.88;;;4.65;;
66585;SDS011;53444;45.822;16.092;2023-04-06T09:15:02;8.60;;;4.68;;
66585;SDS011;53444;45.822;16.092;2023-04-06T09:17:31;7.32;;;4.65;;
66585;SDS011;53444;45.822;16.092;2023-04-06T09:19:59;7.07;;;4.53;;
66585;SDS011;53444;45.822;16.092;2023-04-06T09:22:34;6.32;;;4.75;;
66585;SDS011;53444;45.822;16.092;2023-04-06T09:25:01;7.75;;;5.07;;
66585;SDS011;53444;45.822;16.092;2023-04-06T09:27:31;9.95;;;5.20;;
66585;SDS011;53444;45.822;16.092;2023-04-06T09:30:05;8.63;;;5.32;;
66585;SDS011;53444;45.822;16.092;2023-04-06T09:32:45;8.52;;;4.78;;
66585;SDS011;53444;45.822;16.092;2023-04-06T09:35:14;6.80;;;4.63;;
66585;SDS011;53444;45.822;16.092;2023-04-06T09:37:41;8.43;;;4.32;;
66585;SDS011;53444;45.822;16.092;2023-04-06T09:40:08;8.13;;;4.50;;
66585;SDS011;53444;45.822;16.092;2023-04-06T09:42:35;7.03;;;4.45;;
66585;SDS011;53444;45.822;16.092;2023-04-06T09:45:02;7.25;;;4.15;;
66585;SDS011;53444;45.822;16.092;2023-04-06T09:47:30;6.32;;;4.53;;
66585;SDS011;53444;45.822;16.092;2023-04-06T09:49:59;6.00;;;4.07;;
66585;SDS011;53444;45.822;16.092;2023-04-06T09:52:27;7.40;;;3.85;;
66585;SDS011;53444;45.822;16.092;2023-04-06T09:54:59;7.28;;;3.90;;
66585;SDS011;53444;45.822;16.092;2023-04-06T09:57:30;5.47;;;4.00;;
66585;SDS011;53444;45.822;16.092;2023-04-06T10:00:01;6.72;;;3.97;;
66585;SDS011;53444;45.822;16.092;2023-04-06T10:02:35;5.65;;;3.70;;
66585;SDS011;53444;45.822;16.092;2023-04-06T10:05:15;5.60;;;3.80;;
66585;SDS011;53444;45.822;16.092;2023-04-06T10:07:45;5.18;;;3.30;;
66585;SDS011;53444;45.822;16.092;2023-04-06T10:10:13;5.63;;;3.90;;
66585;SDS011;53444;45.822;16.092;2023-04-06T10:12:41;6.57;;;3.67;;
66585;SDS011;53444;45.822;16.092;2023-04-06T10:15:10;3.90;;;2.80;;
66585;SDS011;53444;45.822;16.092;2023-04-06T10:17:39;6.78;;;3.00;;
66585;SDS011;53444;45.822;16.092;2023-04-06T10:20:10;4.72;;;3.30;;
66585;SDS011;53444;45.822;16.092;2023-04-06T10:22:44;6.47;;;3.78;;
66585;SDS011;53444;45.822;16.092;2023-04-06T10:25:26;4.78;;;2.92;;
66585;SDS011;53444;45.822;16.092;2023-04-06T10:28:02;5.18;;;3.13;;
66585;SDS011;53444;45.822;16.092;2023-04-06T10:30:42;5.15;;;3.42;;
66585;SDS011;53444;45.822;16.092;2023-04-06T10:33:12;5.07;;;3.03;;
66585;SDS011;53444;45.822;16.092;2023-04-06T10:35:41;4.85;;;2.80;;
66585;SDS011;53444;45.822;16.092;2023-04-06T10:38:08;4.50;;;2.78;;
66585;SDS011;53444;45.822;16.092;2023-04-06T10:40:37;3.45;;;2.40;;
66585;SDS011;53444;45.822;16.092;2023-04-06T10:43:07;5.45;;;2.95;;
66585;SDS011;53444;45.822;16.092;2023-04-06T10:45:34;4.53;;;2.95;;
66585;SDS011;53444;45.822;16.092;2023-04-06T10:48:12;4.20;;;3.05;;
66585;SDS011;53444;45.822;16.092;2023-04-06T10:50:42;3.63;;;2.83;;
66585;SDS011;53444;45.822;16.092;2023-04-06T10:53:10;5.70;;;3.30;;
66585;SDS011;53444;45.822;16.092;2023-04-06T10:55:38;6.65;;;3.13;;
66585;SDS011;53444;45.822;16.092;2023-04-06T10:58:07;4.50;;;2.90;;
66585;SDS011;53444;45.822;16.092;2023-04-06T11:00:43;4.43;;;2.80;;
66585;SDS011;53444;45.822;16.092;2023-04-06T11:03:10;4.60;;;2.97;;
66585;SDS011;53444;45.822;16.092;2023-04-06T11:05:37;4.57;;;2.70;;
66585;SDS011;53444;45.822;16.092;2023-04-06T11:08:05;4.70;;;3.40;;
66585;SDS011;53444;45.822;16.092;2023-04-06T11:10:33;4.57;;;3.28;;
66585;SDS011;53444;45.822;16.092;2023-04-06T11:13:00;5.65;;;3.05;;
66585;SDS011;53444;45.822;16.092;2023-04-06T11:15:33;6.68;;;2.90;;
66585;SDS011;53444;45.822;16.092;2023-04-06T11:18:03;4.25;;;3.22;;
66585;SDS011;53444;45.822;16.092;2023-04-06T11:20:30;3.60;;;2.70;;
66585;SDS011;53444;45.822;16.092;2023-04-06T11:22:57;4.05;;;3.03;;
66585;SDS011;53444;45.822;16.092;2023-04-06T11:25:26;4.32;;;3.00;;
66585;SDS011;53444;45.822;16.092;2023-04-06T11:27:55;3.92;;;2.90;;
66585;SDS011;53444;45.822;16.092;2023-04-06T11:30:21;3.97;;;3.00;;
66585;SDS011;53444;45.822;16.092;2023-04-06T11:32:59;4.25;;;2.63;;
66585;SDS011;53444;45.822;16.092;2023-04-06T11:36:04;5.60;;;3.20;;
66585;SDS011;53444;45.822;16.092;2023-04-06T11:38:32;5.15;;;3.80;;
66585;SDS011;53444;45.822;16.092;2023-04-06T11:41:02;4.45;;;3.05;;
66585;SDS011;53444;45.822;16.092;2023-04-06T11:43:29;4.63;;;2.53;;
66585;SDS011;53444;45.822;16.092;2023-04-06T11:45:59;4.93;;;3.05;;
66585;SDS011;53444;45.822;16.092;2023-04-06T11:48:27;5.53;;;3.28;;
66585;SDS011;53444;45.822;16.092;2023-04-06T11:50:56;4.68;;;3.38;;
66585;SDS011;53444;45.822;16.092;2023-04-06T11:53:26;6.18;;;3.08;;
66585;SDS011;53444;45.822;16.092;2023-04-06T11:55:53;6.13;;;3.42;;
66585;SDS011;53444;45.822;16.092;2023-04-06T11:58:22;4.35;;;2.92;;
66585;SDS011;53444;45.822;16.092;2023-04-06T12:00:50;4.13;;;3.60;;
66585;SDS011;53444;45.822;16.092;2023-04-06T12:03:17;4.05;;;3.58;;
66585;SDS011;53444;45.822;16.092;2023-04-06T12:05:44;4.07;;;2.93;;
66585;SDS011;53444;45.822;16.092;2023-04-06T12:08:11;4.55;;;3.72;;
66585;SDS011;53444;45.822;16.092;2023-04-06T12:10:41;5.70;;;3.20;;
66585;SDS011;53444;45.822;16.092;2023-04-06T12:13:08;5.85;;;3.92;;
66585;SDS011;53444;45.822;16.092;2023-04-06T12:15:36;4.75;;;3.60;;
66585;SDS011;53444;45.822;16.092;2023-04-06T12:18:03;6.07;;;3.30;;
66585;SDS011;53444;45.822;16.092;2023-04-06T12:20:30;4.97;;;3.80;;
66585;SDS011;53444;45.822;16.092;2023-04-06T12:22:59;4.95;;;3.70;;
66585;SDS011;53444;45.822;16.092;2023-04-06T12:25:25;4.82;;;3.63;;
66585;SDS011;53444;45.822;16.092;2023-04-06T12:27:55;5.53;;;3.72;;
66585;SDS011;53444;45.822;16.092;2023-04-06T12:30:22;5.13;;;3.60;;
66585;SDS011;53444;45.822;16.092;2023-04-06T12:32:51;4.90;;;3.63;;
66585;SDS011;53444;45.822;16.092;2023-04-06T12:35:18;5.60;;;3.70;;
66585;SDS011;53444;45.822;16.092;2023-04-06T12:37:44;4.57;;;3.55;;
66585;SDS011;53444;45.822;16.092;2023-04-06T12:40:11;5.45;;;4.13;;
66585;SDS011;53444;45.822;16.092;2023-04-06T12:42:42;5.57;;;4.03;;
66585;SDS011;53444;45.822;16.092;2023-04-06T12:45:11;5.05;;;3.63;;
66585;SDS011;53444;45.822;16.092;2023-04-06T12:47:38;5.13;;;3.70;;
66585;SDS011;53444;45.822;16.092;2023-04-06T12:50:11;4.25;;;3.53;;
66585;SDS011;53444;45.822;16.092;2023-04-06T12:52:40;4.93;;;3.53;;
66585;SDS011;53444;45.822;16.092;2023-04-06T12:55:10;5.33;;;3.87;;
66585;SDS011;53444;45.822;16.092;2023-04-06T12:57:41;5.93;;;3.70;;
66585;SDS011;53444;45.822;16.092;2023-04-06T13:00:10;4.85;;;3.65;;
66585;SDS011;53444;45.822;16.092;2023-04-06T13:02:45;4.95;;;3.60;;
66585;SDS011;53444;45.822;16.092;2023-04-06T13:05:18;5.57;;;3.95;;
66585;SDS011;53444;45.822;16.092;2023-04-06T13:07:47;5.27;;;3.83;;
66585;SDS011;53444;45.822;16.092;2023-04-06T13:10:15;5.38;;;3.88;;
66585;SDS011;53444;45.822;16.092;2023-04-06T13:12:45;4.45;;;3.60;;
66585;SDS011;53444;45.822;16.092;2023-04-06T13:15:14;4.15;;;3.38;;
66585;SDS011;53444;45.822;16.092;2023-04-06T13:17:49;4.68;;;4.00;;
66585;SDS011;53444;45.822;16.092;2023-04-06T13:20:25;4.37;;;3.90;;
66585;SDS011;53444;45.822;16.092;2023-04-06T13:22:55;4.85;;;3.35;;
66585;SDS011;53444;45.822;16.092;2023-04-06T13:25:23;5.07;;;3.90;;
66585;SDS011;53444;45.822;16.092;2023-04-06T13:27:51;4.80;;;3.60;;
66585;SDS011;53444;45.822;16.092;2023-04-06T13:30:22;5.50;;;4.10;;
66585;SDS011;53444;45.822;16.092;2023-04-06T13:32:53;5.70;;;4.70;;
66585;SDS011;53444;45.822;16.092;2023-04-06T13:35:23;4.28;;;3.88;;
66585;SDS011;53444;45.822;16.092;2023-04-06T13:38:01;4.25;;;3.80;;
66585;SDS011;53444;45.822;16.092;2023-04-06T13:40:35;4.72;;;3.70;;
66585;SDS011;53444;45.822;16.092;2023-04-06T13:43:19;6.68;;;3.90;;
66585;SDS011;53444;45.822;16.092;2023-04-06T13:45:55;5.37;;;3.77;;
66585;SDS011;53444;45.822;16.092;2023-04-06T13:48:32;4.30;;;3.60;;
66585;SDS011;53444;45.822;16.092;2023-04-06T13:51:10;5.30;;;4.07;;
66585;SDS011;53444;45.822;16.092;2023-04-06T13:53:39;3.95;;;3.30;;
66585;SDS011;53444;45.822;16.092;2023-04-06T13:56:06;4.95;;;4.18;;
66585;SDS011;53444;45.822;16.092;2023-04-06T13:58:33;5.37;;;4.10;;
66585;SDS011;53444;45.822;16.092;2023-04-06T14:01:04;5.75;;;3.95;;
66585;SDS011;53444;45.822;16.092;2023-04-06T14:03:41;6.55;;;4.60;;
66585;SDS011;53444;45.822;16.092;2023-04-06T14:06:12;6.63;;;3.83;;
66585;SDS011;53444;45.822;16.092;2023-04-06T14:08:48;4.80;;;4.00;;
66585;SDS011;53444;45.822;16.092;2023-04-06T14:11:20;4.23;;;3.77;;
66585;SDS011;53444;45.822;16.092;2023-04-06T14:13:55;5.13;;;4.35;;
66585;SDS011;53444;45.822;16.092;2023-04-06T14:16:34;4.88;;;3.90;;
66585;SDS011;53444;45.822;16.092;2023-04-06T14:19:02;5.63;;;3.83;;
66585;SDS011;53444;45.822;16.092;2023-04-06T14:21:34;4.75;;;4.03;;
66585;SDS011;53444;45.822;16.092;2023-04-06T14:24:06;5.73;;;4.03;;
66585;SDS011;53444;45.822;16.092;2023-04-06T14:26:38;5.90;;;4.45;;
66585;SDS011;53444;45.822;16.092;2023-04-06T14:29:11;6.22;;;4.38;;
66585;SDS011;53444;45.822;16.092;2023-04-06T14:31:43;5.47;;;4.07;;
66585;SDS011;53444;45.822;16.092;2023-04-06T14:34:12;4.93;;;4.25;;
66585;SDS011;53444;45.822;16.092;2023-04-06T14:36:41;5.67;;;3.80;;
66585;SDS011;53444;45.822;16.092;2023-04-06T14:39:09;4.80;;;3.88;;
66585;SDS011;53444;45.822;16.092;2023-04-06T14:41:36;5.28;;;4.28;;
66585;SDS011;53444;45.822;16.092;2023-04-06T14:44:05;6.03;;;4.07;;
66585;SDS011;53444;45.822;16.092;2023-04-06T14:46:37;4.63;;;4.03;;
66585;SDS011;53444;45.822;16.092;2023-04-06T14:49:10;6.00;;;3.90;;
66585;SDS011;53444;45.822;16.092;2023-04-06T14:51:44;6.05;;;4.20;;